sensor_id;sensor_type;location;lat;lon;timestamp;P1;durP1;ratioP1;P2;durP2;ratioP2
32321;SDS011;61553;48.994;8.940;2023-03-01T00:01:33;24.60;;;13.02;;
32321;SDS011;61553;48.994;8.940;2023-03-01T00:03:59;27.98;;;13.27;;
32321;SDS011;61553;48.994;8.940;2023-03-01T00:06:25;25.63;;;12.90;;
32321;SDS011;61553;48.994;8.940;2023-03-01T00:08:51;26.70;;;12.82;;
32321;SDS011;61553;48.994;8.940;2023-03-01T00:11:18;30.98;;;13.25;;
32321;SDS011;61553;48.994;8.940;2023-03-01T00:13:47;28.80;;;13.63;;
32321;SDS011;61553;48.994;8.940;2023-03-01T00:16:15;31.20;;;13.75;;
32321;SDS011;61553;48.994;8.940;2023-03-01T00:18:51;27.38;;;12.98;;
32321;SDS011;61553;48.994;8.940;2023-03-01T00:21:19;23.48;;;12.30;;
32321;SDS011;61553;48.994;8.940;2023-03-01T00:23:46;26.33;;;12.23;;
32321;SDS011;61553;48.994;8.940;2023-03-01T00:26:13;22.05;;;13.02;;
32321;SDS011;61553;48.994;8.940;2023-03-01T00:28:40;22.42;;;12.32;;
32321;SDS011;61553;48.994;8.940;2023-03-01T00:31:16;26.73;;;14.05;;
32321;SDS011;61553;48.994;8.940;2023-03-01T00:33:44;28.10;;;13.68;;
32321;SDS011;61553;48.994;8.940;2023-03-01T00:36:11;23.08;;;13.15;;
32321;SDS011;61553;48.994;8.940;2023-03-01T00:38:39;24.30;;;12.20;;
32321;SDS011;61553;48.994;8.940;2023-03-01T00:41:07;25.80;;;13.70;;
32321;SDS011;61553;48.994;8.940;2023-03-01T00:43:33;25.67;;;13.02;;
32321;SDS011;61553;48.994;8.940;2023-03-01T00:46:11;26.70;;;14.20;;
32321;SDS011;61553;48.994;8.940;2023-03-01T00:48:38;29.52;;;14.55;;
32321;SDS011;61553;48.994;8.940;2023-03-01T00:51:08;30.42;;;15.00;;
32321;SDS011;61553;48.994;8.940;2023-03-01T00:53:36;25.00;;;13.57;;
32321;SDS011;61553;48.994;8.940;2023-03-01T00:56:03;25.98;;;14.18;;
32321;SDS011;61553;48.994;8.940;2023-03-01T00:58:29;26.23;;;12.98;;
32321;SDS011;61553;48.994;8.940;2023-03-01T01:00:55;26.67;;;14.57;;
32321;SDS011;61553;48.994;8.940;2023-03-01T01:03:21;29.00;;;13.88;;
32321;SDS011;61553;48.994;8.940;2023-03-01T01:05:48;26.45;;;13.02;;
32321;SDS011;61553;48.994;8.940;2023-03-01T01:08:13;29.85;;;13.63;;
32321;SDS011;61553;48.994;8.940;2023-03-01T01:10:39;23.95;;;12.18;;
32321;SDS011;61553;48.994;8.940;2023-03-01T01:13:05;26.55;;;13.48;;
32321;SDS011;61553;48.994;8.940;2023-03-01T01:15:33;26.05;;;13.57;;
32321;SDS011;61553;48.994;8.940;2023-03-01T01:18:00;28.08;;;13.13;;
32321;SDS011;61553;48.994;8.940;2023-03-01T01:20:26;26.58;;;13.68;;
32321;SDS011;61553;48.994;8.940;2023-03-01T01:22:51;29.83;;;14.05;;
32321;SDS011;61553;48.994;8.940;2023-03-01T01:25:17;21.50;;;12.20;;
32321;SDS011;61553;48.994;8.940;2023-03-01T01:27:43;25.92;;;13.65;;
32321;SDS011;61553;48.994;8.940;2023-03-01T01:30:09;24.15;;;12.50;;
32321;SDS011;61553;48.994;8.940;2023-03-01T01:32:35;28.20;;;13.50;;
32321;SDS011;61553;48.994;8.940;2023-03-01T01:35:01;25.38;;;13.00;;
32321;SDS011;61553;48.994;8.940;2023-03-01T01:37:26;24.65;;;12.73;;
32321;SDS011;61553;48.994;8.940;2023-03-01T01:39:59;26.00;;;13.60;;
32321;SDS011;61553;48.994;8.940;2023-03-01T01:42:26;25.58;;;12.85;;
32321;SDS011;61553;48.994;8.940;2023-03-01T01:45:27;22.15;;;12.30;;
32321;SDS011;61553;48.994;8.940;2023-03-01T01:47:58;26.70;;;12.93;;
32321;SDS011;61553;48.994;8.940;2023-03-01T01:50:27;23.77;;;12.82;;
32321;SDS011;61553;48.994;8.940;2023-03-01T01:53:02;22.98;;;13.05;;
32321;SDS011;61553;48.994;8.940;2023-03-01T01:55:30;24.85;;;13.32;;
32321;SDS011;61553;48.994;8.940;2023-03-01T01:57:58;25.90;;;13.40;;
32321;SDS011;61553;48.994;8.940;2023-03-01T02:00:27;32.65;;;14.18;;
32321;SDS011;61553;48.994;8.940;2023-03-01T02:02:59;27.48;;;13.63;;
32321;SDS011;61553;48.994;8.940;2023-03-01T02:08:08;28.73;;;13.75;;
32321;SDS011;61553;48.994;8.940;2023-03-01T02:10:35;24.80;;;12.88;;
32321;SDS011;61553;48.994;8.940;2023-03-01T02:13:02;28.67;;;14.20;;
32321;SDS011;61553;48.994;8.940;2023-03-01T02:15:31;28.52;;;14.10;;
32321;SDS011;61553;48.994;8.940;2023-03-01T02:17:58;25.27;;;13.43;;
32321;SDS011;61553;48.994;8.940;2023-03-01T02:23:00;25.25;;;13.60;;
32321;SDS011;61553;48.994;8.940;2023-03-01T02:25:40;26.38;;;13.32;;
32321;SDS011;61553;48.994;8.940;2023-03-01T02:28:29;26.95;;;14.02;;
32321;SDS011;61553;48.994;8.940;2023-03-01T02:30:56;30.77;;;14.63;;
32321;SDS011;61553;48.994;8.940;2023-03-01T02:33:40;29.48;;;14.13;;
32321;SDS011;61553;48.994;8.940;2023-03-01T02:36:12;26.70;;;14.35;;
32321;SDS011;61553;48.994;8.940;2023-03-01T02:38:42;26.95;;;12.77;;
32321;SDS011;61553;48.994;8.940;2023-03-01T02:41:08;30.85;;;14.10;;
32321;SDS011;61553;48.994;8.940;2023-03-01T02:43:38;28.27;;;13.48;;
32321;SDS011;61553;48.994;8.940;2023-03-01T02:46:06;27.35;;;15.23;;
32321;SDS011;61553;48.994;8.940;2023-03-01T02:48:44;26.83;;;13.18;;
32321;SDS011;61553;48.994;8.940;2023-03-01T02:51:22;28.55;;;14.77;;
32321;SDS011;61553;48.994;8.940;2023-03-01T02:54:13;26.92;;;14.30;;
32321;SDS011;61553;48.994;8.940;2023-03-01T02:56:46;26.45;;;13.82;;
32321;SDS011;61553;48.994;8.940;2023-03-01T02:59:16;27.05;;;13.82;;
32321;SDS011;61553;48.994;8.940;2023-03-01T03:01:45;25.40;;;13.65;;
32321;SDS011;61553;48.994;8.940;2023-03-01T03:04:14;27.40;;;15.25;;
32321;SDS011;61553;48.994;8.940;2023-03-01T03:06:42;27.38;;;14.95;;
32321;SDS011;61553;48.994;8.940;2023-03-01T03:09:09;33.33;;;17.05;;
32321;SDS011;61553;48.994;8.940;2023-03-01T03:11:35;65.70;;;40.05;;
32321;SDS011;61553;48.994;8.940;2023-03-01T03:14:02;52.72;;;32.38;;
32321;SDS011;61553;48.994;8.940;2023-03-01T03:16:28;40.70;;;24.08;;
32321;SDS011;61553;48.994;8.940;2023-03-01T03:18:54;57.47;;;33.85;;
32321;SDS011;61553;48.994;8.940;2023-03-01T03:21:29;46.70;;;25.20;;
32321;SDS011;61553;48.994;8.940;2023-03-01T03:23:58;35.08;;;17.20;;
32321;SDS011;61553;48.994;8.940;2023-03-01T03:26:24;35.88;;;18.30;;
32321;SDS011;61553;48.994;8.940;2023-03-01T03:28:50;32.80;;;16.60;;
32321;SDS011;61553;48.994;8.940;2023-03-01T03:31:15;30.38;;;15.45;;
32321;SDS011;61553;48.994;8.940;2023-03-01T03:33:41;34.92;;;15.68;;
32321;SDS011;61553;48.994;8.940;2023-03-01T03:36:07;34.35;;;17.02;;
32321;SDS011;61553;48.994;8.940;2023-03-01T03:38:38;28.77;;;15.23;;
32321;SDS011;61553;48.994;8.940;2023-03-01T03:41:05;40.15;;;21.75;;
32321;SDS011;61553;48.994;8.940;2023-03-01T03:43:33;30.42;;;15.85;;
32321;SDS011;61553;48.994;8.940;2023-03-01T03:46:02;30.38;;;16.00;;
32321;SDS011;61553;48.994;8.940;2023-03-01T03:48:33;29.33;;;15.10;;
32321;SDS011;61553;48.994;8.940;2023-03-01T03:50:59;27.00;;;14.48;;
32321;SDS011;61553;48.994;8.940;2023-03-01T03:53:25;32.72;;;15.50;;
32321;SDS011;61553;48.994;8.940;2023-03-01T03:55:53;28.40;;;15.25;;
32321;SDS011;61553;48.994;8.940;2023-03-01T03:58:20;27.08;;;14.30;;
32321;SDS011;61553;48.994;8.940;2023-03-01T04:00:49;24.65;;;13.32;;
32321;SDS011;61553;48.994;8.940;2023-03-01T04:03:16;32.25;;;14.90;;
32321;SDS011;61553;48.994;8.940;2023-03-01T04:05:43;30.80;;;15.10;;
32321;SDS011;61553;48.994;8.940;2023-03-01T04:08:10;34.63;;;15.70;;
32321;SDS011;61553;48.994;8.940;2023-03-01T04:10:37;28.27;;;15.32;;
32321;SDS011;61553;48.994;8.940;2023-03-01T04:13:05;27.17;;;14.73;;
32321;SDS011;61553;48.994;8.940;2023-03-01T04:15:34;31.13;;;15.13;;
32321;SDS011;61553;48.994;8.940;2023-03-01T04:18:00;35.33;;;14.97;;
32321;SDS011;61553;48.994;8.940;2023-03-01T04:20:30;37.63;;;16.00;;
32321;SDS011;61553;48.994;8.940;2023-03-01T04:23:08;34.15;;;15.50;;
32321;SDS011;61553;48.994;8.940;2023-03-01T04:28:10;31.77;;;16.50;;
32321;SDS011;61553;48.994;8.940;2023-03-01T04:30:37;30.47;;;15.47;;
32321;SDS011;61553;48.994;8.940;2023-03-01T04:33:06;31.17;;;15.70;;
32321;SDS011;61553;48.994;8.940;2023-03-01T04:35:34;31.50;;;15.93;;
32321;SDS011;61553;48.994;8.940;2023-03-01T04:38:00;33.03;;;15.53;;
32321;SDS011;61553;48.994;8.940;2023-03-01T04:40:26;37.27;;;18.30;;
32321;SDS011;61553;48.994;8.940;2023-03-01T04:42:52;39.10;;;17.00;;
32321;SDS011;61553;48.994;8.940;2023-03-01T04:45:18;35.90;;;16.60;;
32321;SDS011;61553;48.994;8.940;2023-03-01T04:47:44;34.70;;;17.90;;
32321;SDS011;61553;48.994;8.940;2023-03-01T04:50:12;34.67;;;18.03;;
32321;SDS011;61553;48.994;8.940;2023-03-01T04:52:39;38.40;;;18.00;;
32321;SDS011;61553;48.994;8.940;2023-03-01T04:55:05;38.00;;;17.87;;
32321;SDS011;61553;48.994;8.940;2023-03-01T04:57:31;36.13;;;16.37;;
32321;SDS011;61553;48.994;8.940;2023-03-01T04:59:57;35.20;;;15.10;;
32321;SDS011;61553;48.994;8.940;2023-03-01T05:02:22;33.77;;;16.17;;
32321;SDS011;61553;48.994;8.940;2023-03-01T05:04:48;36.60;;;19.13;;
32321;SDS011;61553;48.994;8.940;2023-03-01T05:07:14;36.90;;;18.33;;
32321;SDS011;61553;48.994;8.940;2023-03-01T05:09:47;50.37;;;22.23;;
32321;SDS011;61553;48.994;8.940;2023-03-01T05:12:13;68.97;;;30.33;;
32321;SDS011;61553;48.994;8.940;2023-03-01T05:14:40;67.40;;;28.23;;
32321;SDS011;61553;48.994;8.940;2023-03-01T05:17:06;65.10;;;28.50;;
32321;SDS011;61553;48.994;8.940;2023-03-01T05:19:32;47.33;;;20.90;;
32321;SDS011;61553;48.994;8.940;2023-03-01T05:21:58;40.50;;;19.73;;
32321;SDS011;61553;48.994;8.940;2023-03-01T05:24:27;50.97;;;24.10;;
32321;SDS011;61553;48.994;8.940;2023-03-01T05:26:54;37.27;;;18.37;;
32321;SDS011;61553;48.994;8.940;2023-03-01T05:29:23;42.13;;;19.03;;
32321;SDS011;61553;48.994;8.940;2023-03-01T05:31:54;44.93;;;18.83;;
32321;SDS011;61553;48.994;8.940;2023-03-01T05:34:24;42.27;;;20.67;;
32321;SDS011;61553;48.994;8.940;2023-03-01T05:36:51;45.10;;;20.73;;
32321;SDS011;61553;48.994;8.940;2023-03-01T05:39:19;43.17;;;20.80;;
32321;SDS011;61553;48.994;8.940;2023-03-01T05:41:52;40.70;;;19.40;;
32321;SDS011;61553;48.994;8.940;2023-03-01T05:44:18;39.80;;;18.48;;
32321;SDS011;61553;48.994;8.940;2023-03-01T05:46:44;37.57;;;18.07;;
32321;SDS011;61553;48.994;8.940;2023-03-01T05:49:10;43.35;;;20.00;;
32321;SDS011;61553;48.994;8.940;2023-03-01T05:51:38;47.58;;;20.55;;
32321;SDS011;61553;48.994;8.940;2023-03-01T05:54:04;55.35;;;24.20;;
32321;SDS011;61553;48.994;8.940;2023-03-01T05:56:32;57.78;;;25.55;;
32321;SDS011;61553;48.994;8.940;2023-03-01T05:59:01;52.83;;;24.10;;
32321;SDS011;61553;48.994;8.940;2023-03-01T06:01:28;38.05;;;20.42;;
32321;SDS011;61553;48.994;8.940;2023-03-01T06:03:54;40.60;;;18.48;;
32321;SDS011;61553;48.994;8.940;2023-03-01T06:06:21;42.42;;;20.50;;
32321;SDS011;61553;48.994;8.940;2023-03-01T06:08:47;38.55;;;18.80;;
32321;SDS011;61553;48.994;8.940;2023-03-01T06:11:13;33.88;;;17.63;;
32321;SDS011;61553;48.994;8.940;2023-03-01T06:13:38;48.22;;;20.65;;
32321;SDS011;61553;48.994;8.940;2023-03-01T06:16:05;40.08;;;20.30;;
32321;SDS011;61553;48.994;8.940;2023-03-01T06:18:32;40.60;;;20.25;;
32321;SDS011;61553;48.994;8.940;2023-03-01T06:20:58;40.65;;;20.05;;
32321;SDS011;61553;48.994;8.940;2023-03-01T06:23:23;39.90;;;18.38;;
32321;SDS011;61553;48.994;8.940;2023-03-01T06:25:50;42.50;;;20.17;;
32321;SDS011;61553;48.994;8.940;2023-03-01T06:28:15;47.15;;;23.65;;
32321;SDS011;61553;48.994;8.940;2023-03-01T06:30:41;45.10;;;21.70;;
32321;SDS011;61553;48.994;8.940;2023-03-01T06:33:07;44.58;;;22.17;;
32321;SDS011;61553;48.994;8.940;2023-03-01T06:35:33;41.38;;;19.95;;
32321;SDS011;61553;48.994;8.940;2023-03-01T06:37:59;38.70;;;19.50;;
32321;SDS011;61553;48.994;8.940;2023-03-01T06:40:26;40.78;;;21.35;;
32321;SDS011;61553;48.994;8.940;2023-03-01T06:42:52;39.50;;;21.20;;
32321;SDS011;61553;48.994;8.940;2023-03-01T06:45:18;43.47;;;20.30;;
32321;SDS011;61553;48.994;8.940;2023-03-01T06:47:45;35.45;;;17.77;;
32321;SDS011;61553;48.994;8.940;2023-03-01T06:50:12;34.33;;;18.75;;
32321;SDS011;61553;48.994;8.940;2023-03-01T06:52:38;42.90;;;22.48;;
32321;SDS011;61553;48.994;8.940;2023-03-01T06:55:04;42.83;;;21.65;;
32321;SDS011;61553;48.994;8.940;2023-03-01T06:57:30;45.78;;;21.27;;
32321;SDS011;61553;48.994;8.940;2023-03-01T06:59:56;40.50;;;19.75;;
32321;SDS011;61553;48.994;8.940;2023-03-01T07:02:22;34.13;;;17.45;;
32321;SDS011;61553;48.994;8.940;2023-03-01T07:04:51;35.92;;;19.20;;
32321;SDS011;61553;48.994;8.940;2023-03-01T07:07:17;34.88;;;17.40;;
32321;SDS011;61553;48.994;8.940;2023-03-01T07:09:44;36.53;;;19.52;;
32321;SDS011;61553;48.994;8.940;2023-03-01T07:12:10;46.60;;;24.05;;
32321;SDS011;61553;48.994;8.940;2023-03-01T07:14:36;39.58;;;19.13;;
32321;SDS011;61553;48.994;8.940;2023-03-01T07:17:01;40.25;;;19.27;;
32321;SDS011;61553;48.994;8.940;2023-03-01T07:19:27;43.97;;;20.35;;
32321;SDS011;61553;48.994;8.940;2023-03-01T07:21:52;43.97;;;21.95;;
32321;SDS011;61553;48.994;8.940;2023-03-01T07:24:18;38.28;;;19.02;;
32321;SDS011;61553;48.994;8.940;2023-03-01T07:26:47;42.80;;;20.00;;
32321;SDS011;61553;48.994;8.940;2023-03-01T07:29:15;34.83;;;19.55;;
32321;SDS011;61553;48.994;8.940;2023-03-01T07:31:41;32.03;;;17.25;;
32321;SDS011;61553;48.994;8.940;2023-03-01T07:34:06;32.28;;;16.38;;
32321;SDS011;61553;48.994;8.940;2023-03-01T07:36:32;34.42;;;17.50;;
32321;SDS011;61553;48.994;8.940;2023-03-01T07:38:58;38.08;;;17.88;;
32321;SDS011;61553;48.994;8.940;2023-03-01T07:41:24;34.42;;;17.10;;
32321;SDS011;61553;48.994;8.940;2023-03-01T07:43:50;32.05;;;16.85;;
32321;SDS011;61553;48.994;8.940;2023-03-01T07:46:15;32.58;;;17.02;;
32321;SDS011;61553;48.994;8.940;2023-03-01T07:48:41;35.55;;;17.73;;
32321;SDS011;61553;48.994;8.940;2023-03-01T07:51:06;32.88;;;17.02;;
32321;SDS011;61553;48.994;8.940;2023-03-01T07:53:32;41.05;;;19.00;;
32321;SDS011;61553;48.994;8.940;2023-03-01T07:56:06;37.90;;;18.55;;
32321;SDS011;61553;48.994;8.940;2023-03-01T07:58:36;33.83;;;16.70;;
32321;SDS011;61553;48.994;8.940;2023-03-01T08:01:04;29.77;;;16.77;;
32321;SDS011;61553;48.994;8.940;2023-03-01T08:03:31;33.97;;;17.08;;
32321;SDS011;61553;48.994;8.940;2023-03-01T08:05:59;32.92;;;17.40;;
32321;SDS011;61553;48.994;8.940;2023-03-01T08:08:26;30.13;;;16.77;;
32321;SDS011;61553;48.994;8.940;2023-03-01T08:10:52;28.83;;;16.38;;
32321;SDS011;61553;48.994;8.940;2023-03-01T08:13:17;30.55;;;15.93;;
32321;SDS011;61553;48.994;8.940;2023-03-01T08:15:47;27.80;;;15.73;;
32321;SDS011;61553;48.994;8.940;2023-03-01T08:18:14;27.15;;;16.08;;
32321;SDS011;61553;48.994;8.940;2023-03-01T08:20:41;27.08;;;15.38;;
32321;SDS011;61553;48.994;8.940;2023-03-01T08:23:06;26.52;;;15.65;;
32321;SDS011;61553;48.994;8.940;2023-03-01T08:25:32;31.02;;;18.15;;
32321;SDS011;61553;48.994;8.940;2023-03-01T08:27:58;29.25;;;16.98;;
32321;SDS011;61553;48.994;8.940;2023-03-01T08:30:24;26.38;;;16.55;;
32321;SDS011;61553;48.994;8.940;2023-03-01T08:32:49;24.92;;;16.55;;
32321;SDS011;61553;48.994;8.940;2023-03-01T08:35:16;21.27;;;15.52;;
32321;SDS011;61553;48.994;8.940;2023-03-01T08:37:42;25.60;;;16.27;;
32321;SDS011;61553;48.994;8.940;2023-03-01T08:40:08;24.77;;;16.27;;
32321;SDS011;61553;48.994;8.940;2023-03-01T08:42:35;26.70;;;17.10;;
32321;SDS011;61553;48.994;8.940;2023-03-01T08:45:01;26.13;;;15.90;;
32321;SDS011;61553;48.994;8.940;2023-03-01T08:47:27;26.55;;;16.20;;
32321;SDS011;61553;48.994;8.940;2023-03-01T08:49:53;34.75;;;17.00;;
32321;SDS011;61553;48.994;8.940;2023-03-01T08:52:19;25.50;;;15.43;;
32321;SDS011;61553;48.994;8.940;2023-03-01T08:54:47;28.20;;;17.20;;
32321;SDS011;61553;48.994;8.940;2023-03-01T08:57:13;26.38;;;16.80;;
32321;SDS011;61553;48.994;8.940;2023-03-01T08:59:39;25.02;;;16.77;;
32321;SDS011;61553;48.994;8.940;2023-03-01T09:02:06;23.83;;;15.88;;
32321;SDS011;61553;48.994;8.940;2023-03-01T09:04:40;20.85;;;15.20;;
32321;SDS011;61553;48.994;8.940;2023-03-01T09:07:05;25.65;;;16.98;;
32321;SDS011;61553;48.994;8.940;2023-03-01T09:09:33;24.17;;;16.23;;
32321;SDS011;61553;48.994;8.940;2023-03-01T09:11:59;24.55;;;16.60;;
32321;SDS011;61553;48.994;8.940;2023-03-01T09:14:25;25.15;;;17.27;;
32321;SDS011;61553;48.994;8.940;2023-03-01T09:16:50;25.63;;;15.80;;
32321;SDS011;61553;48.994;8.940;2023-03-01T09:19:16;26.65;;;15.77;;
32321;SDS011;61553;48.994;8.940;2023-03-01T09:21:41;22.60;;;15.27;;
32321;SDS011;61553;48.994;8.940;2023-03-01T09:24:17;21.90;;;16.15;;
32321;SDS011;61553;48.994;8.940;2023-03-01T09:26:43;23.10;;;17.08;;
32321;SDS011;61553;48.994;8.940;2023-03-01T09:29:11;24.30;;;16.92;;
32321;SDS011;61553;48.994;8.940;2023-03-01T09:31:37;24.45;;;16.83;;
32321;SDS011;61553;48.994;8.940;2023-03-01T09:34:03;23.60;;;16.90;;
32321;SDS011;61553;48.994;8.940;2023-03-01T09:36:29;21.40;;;16.17;;
32321;SDS011;61553;48.994;8.940;2023-03-01T09:38:55;24.42;;;16.58;;
32321;SDS011;61553;48.994;8.940;2023-03-01T09:41:33;23.48;;;16.17;;
32321;SDS011;61553;48.994;8.940;2023-03-01T09:44:13;24.85;;;16.17;;
32321;SDS011;61553;48.994;8.940;2023-03-01T09:46:42;26.35;;;17.50;;
32321;SDS011;61553;48.994;8.940;2023-03-01T09:49:19;27.48;;;16.23;;
32321;SDS011;61553;48.994;8.940;2023-03-01T09:51:58;22.10;;;15.80;;
32321;SDS011;61553;48.994;8.940;2023-03-01T09:54:40;26.77;;;16.30;;
32321;SDS011;61553;48.994;8.940;2023-03-01T09:57:19;25.08;;;16.98;;
32321;SDS011;61553;48.994;8.940;2023-03-01T10:02:42;23.85;;;17.00;;
32321;SDS011;61553;48.994;8.940;2023-03-01T10:10:44;23.25;;;17.50;;
32321;SDS011;61553;48.994;8.940;2023-03-01T10:15:47;23.10;;;16.73;;
32321;SDS011;61553;48.994;8.940;2023-03-01T10:18:20;23.17;;;16.35;;
32321;SDS011;61553;48.994;8.940;2023-03-01T10:20:53;23.95;;;16.38;;
32321;SDS011;61553;48.994;8.940;2023-03-01T10:23:19;23.02;;;16.38;;
32321;SDS011;61553;48.994;8.940;2023-03-01T10:31:03;21.70;;;16.83;;
32321;SDS011;61553;48.994;8.940;2023-03-01T10:33:33;26.70;;;17.25;;
32321;SDS011;61553;48.994;8.940;2023-03-01T10:38:29;22.88;;;16.10;;
32321;SDS011;61553;48.994;8.940;2023-03-01T10:41:00;24.50;;;17.60;;
32321;SDS011;61553;48.994;8.940;2023-03-01T10:43:43;24.98;;;16.90;;
32321;SDS011;61553;48.994;8.940;2023-03-01T10:51:38;26.67;;;16.63;;
32321;SDS011;61553;48.994;8.940;2023-03-01T10:54:15;22.42;;;16.60;;
32321;SDS011;61553;48.994;8.940;2023-03-01T10:56:54;23.60;;;16.90;;
32321;SDS011;61553;48.994;8.940;2023-03-01T10:59:26;27.00;;;16.67;;
32321;SDS011;61553;48.994;8.940;2023-03-01T11:04:28;24.98;;;17.70;;
32321;SDS011;61553;48.994;8.940;2023-03-01T11:06:58;25.50;;;17.23;;
32321;SDS011;61553;48.994;8.940;2023-03-01T11:09:25;27.85;;;18.08;;
32321;SDS011;61553;48.994;8.940;2023-03-01T11:12:00;23.58;;;17.13;;
32321;SDS011;61553;48.994;8.940;2023-03-01T11:14:33;26.63;;;17.67;;
32321;SDS011;61553;48.994;8.940;2023-03-01T11:17:12;25.10;;;18.52;;
32321;SDS011;61553;48.994;8.940;2023-03-01T11:22:39;25.00;;;17.40;;
32321;SDS011;61553;48.994;8.940;2023-03-01T11:25:37;28.63;;;17.70;;
32321;SDS011;61553;48.994;8.940;2023-03-01T11:28:09;44.92;;;28.58;;
32321;SDS011;61553;48.994;8.940;2023-03-01T11:30:47;32.17;;;19.80;;
32321;SDS011;61553;48.994;8.940;2023-03-01T11:36:58;31.35;;;18.55;;
32321;SDS011;61553;48.994;8.940;2023-03-01T11:39:18;31.98;;;18.50;;
32321;SDS011;61553;48.994;8.940;2023-03-01T11:41:53;35.35;;;19.55;;
32321;SDS011;61553;48.994;8.940;2023-03-01T11:44:27;31.48;;;19.98;;
32321;SDS011;61553;48.994;8.940;2023-03-01T11:55:26;28.58;;;16.55;;
32321;SDS011;61553;48.994;8.940;2023-03-01T12:00:49;28.73;;;18.17;;
32321;SDS011;61553;48.994;8.940;2023-03-01T12:20:18;28.30;;;17.25;;
32321;SDS011;61553;48.994;8.940;2023-03-01T12:25:48;31.45;;;17.95;;
32321;SDS011;61553;48.994;8.940;2023-03-01T12:36:54;28.92;;;16.85;;
32321;SDS011;61553;48.994;8.940;2023-03-01T12:39:31;30.33;;;19.05;;
32321;SDS011;61553;48.994;8.940;2023-03-01T12:42:08;31.65;;;18.25;;
32321;SDS011;61553;48.994;8.940;2023-03-01T12:50:20;30.45;;;18.23;;
32321;SDS011;61553;48.994;8.940;2023-03-01T12:52:57;46.80;;;23.25;;
32321;SDS011;61553;48.994;8.940;2023-03-01T12:55:28;30.38;;;18.45;;
32321;SDS011;61553;48.994;8.940;2023-03-01T13:00:45;28.88;;;17.08;;
32321;SDS011;61553;48.994;8.940;2023-03-01T13:08:58;31.50;;;18.13;;
32321;SDS011;61553;48.994;8.940;2023-03-01T13:11:48;31.58;;;18.95;;
32321;SDS011;61553;48.994;8.940;2023-03-01T13:16:45;48.93;;;26.87;;
32321;SDS011;61553;48.994;8.940;2023-03-01T13:19:23;39.15;;;22.73;;
32321;SDS011;61553;48.994;8.940;2023-03-01T13:21:52;45.85;;;26.23;;
32321;SDS011;61553;48.994;8.940;2023-03-01T13:32:30;33.72;;;20.35;;
32321;SDS011;61553;48.994;8.940;2023-03-01T13:35:02;32.88;;;18.00;;
32321;SDS011;61553;48.994;8.940;2023-03-01T13:37:34;29.00;;;18.17;;
32321;SDS011;61553;48.994;8.940;2023-03-01T13:40:03;31.30;;;19.17;;
32321;SDS011;61553;48.994;8.940;2023-03-01T13:45:47;32.20;;;17.65;;
32321;SDS011;61553;48.994;8.940;2023-03-01T13:48:20;31.17;;;15.93;;
32321;SDS011;61553;48.994;8.940;2023-03-01T13:50:54;32.33;;;18.83;;
32321;SDS011;61553;48.994;8.940;2023-03-01T13:53:26;27.63;;;16.38;;
32321;SDS011;61553;48.994;8.940;2023-03-01T13:56:06;27.70;;;16.92;;
32321;SDS011;61553;48.994;8.940;2023-03-01T13:59:01;30.58;;;17.38;;
32321;SDS011;61553;48.994;8.940;2023-03-01T14:01:34;30.48;;;17.33;;
32321;SDS011;61553;48.994;8.940;2023-03-01T14:04:01;29.42;;;18.95;;
32321;SDS011;61553;48.994;8.940;2023-03-01T14:06:29;28.95;;;17.13;;
32321;SDS011;61553;48.994;8.940;2023-03-01T14:09:04;30.55;;;16.92;;
32321;SDS011;61553;48.994;8.940;2023-03-01T14:14:36;29.58;;;16.67;;
32321;SDS011;61553;48.994;8.940;2023-03-01T14:17:14;29.10;;;16.83;;
32321;SDS011;61553;48.994;8.940;2023-03-01T14:20:07;25.58;;;15.85;;
32321;SDS011;61553;48.994;8.940;2023-03-01T14:22:44;30.30;;;16.35;;
32321;SDS011;61553;48.994;8.940;2023-03-01T14:25:19;28.30;;;17.45;;
32321;SDS011;61553;48.994;8.940;2023-03-01T14:27:45;30.67;;;17.83;;
32321;SDS011;61553;48.994;8.940;2023-03-01T14:30:23;37.53;;;27.35;;
32321;SDS011;61553;48.994;8.940;2023-03-01T14:32:58;29.33;;;18.88;;
32321;SDS011;61553;48.994;8.940;2023-03-01T14:37:54;28.27;;;15.70;;
32321;SDS011;61553;48.994;8.940;2023-03-01T14:40:21;27.95;;;17.20;;
32321;SDS011;61553;48.994;8.940;2023-03-01T14:42:51;27.23;;;15.90;;
32321;SDS011;61553;48.994;8.940;2023-03-01T14:45:19;25.55;;;15.98;;
32321;SDS011;61553;48.994;8.940;2023-03-01T14:47:45;30.27;;;17.20;;
32321;SDS011;61553;48.994;8.940;2023-03-01T14:52:47;28.40;;;16.25;;
32321;SDS011;61553;48.994;8.940;2023-03-01T14:55:16;30.42;;;17.30;;
32321;SDS011;61553;48.994;8.940;2023-03-01T14:57:47;24.15;;;14.60;;
32321;SDS011;61553;48.994;8.940;2023-03-01T15:02:48;28.10;;;16.15;;
32321;SDS011;61553;48.994;8.940;2023-03-01T15:05:16;27.50;;;15.93;;
32321;SDS011;61553;48.994;8.940;2023-03-01T15:08:19;28.08;;;16.90;;
32321;SDS011;61553;48.994;8.940;2023-03-01T15:10:58;28.73;;;16.80;;
32321;SDS011;61553;48.994;8.940;2023-03-01T15:13:29;27.52;;;15.35;;
32321;SDS011;61553;48.994;8.940;2023-03-01T15:16:07;25.13;;;15.27;;
32321;SDS011;61553;48.994;8.940;2023-03-01T15:18:43;25.48;;;15.43;;
32321;SDS011;61553;48.994;8.940;2023-03-01T15:21:15;26.58;;;15.82;;
32321;SDS011;61553;48.994;8.940;2023-03-01T15:29:04;26.23;;;14.88;;
32321;SDS011;61553;48.994;8.940;2023-03-01T15:31:41;26.73;;;16.58;;
32321;SDS011;61553;48.994;8.940;2023-03-01T15:34:29;32.35;;;16.48;;
32321;SDS011;61553;48.994;8.940;2023-03-01T15:36:58;27.50;;;16.70;;
32321;SDS011;61553;48.994;8.940;2023-03-01T15:42:12;27.70;;;15.93;;
32321;SDS011;61553;48.994;8.940;2023-03-01T15:47:49;26.80;;;16.25;;
32321;SDS011;61553;48.994;8.940;2023-03-01T15:50:22;25.23;;;15.55;;
32321;SDS011;61553;48.994;8.940;2023-03-01T15:52:48;28.90;;;16.38;;
32321;SDS011;61553;48.994;8.940;2023-03-01T15:55:16;29.38;;;16.65;;
32321;SDS011;61553;48.994;8.940;2023-03-01T15:57:47;27.40;;;16.42;;
32321;SDS011;61553;48.994;8.940;2023-03-01T16:00:14;24.33;;;15.73;;
32321;SDS011;61553;48.994;8.940;2023-03-01T16:02:42;27.88;;;16.52;;
32321;SDS011;61553;48.994;8.940;2023-03-01T16:05:16;28.25;;;16.30;;
32321;SDS011;61553;48.994;8.940;2023-03-01T16:07:50;26.67;;;14.90;;
32321;SDS011;61553;48.994;8.940;2023-03-01T16:10:16;28.00;;;16.23;;
32321;SDS011;61553;48.994;8.940;2023-03-01T16:12:43;30.50;;;17.35;;
32321;SDS011;61553;48.994;8.940;2023-03-01T16:15:13;28.75;;;16.20;;
32321;SDS011;61553;48.994;8.940;2023-03-01T16:17:50;29.17;;;15.77;;
32321;SDS011;61553;48.994;8.940;2023-03-01T16:20:17;29.63;;;16.58;;
32321;SDS011;61553;48.994;8.940;2023-03-01T16:22:43;28.05;;;16.38;;
32321;SDS011;61553;48.994;8.940;2023-03-01T16:25:10;29.48;;;15.32;;
32321;SDS011;61553;48.994;8.940;2023-03-01T16:27:38;37.25;;;17.42;;
32321;SDS011;61553;48.994;8.940;2023-03-01T16:30:06;31.88;;;17.25;;
32321;SDS011;61553;48.994;8.940;2023-03-01T16:32:32;32.92;;;17.73;;
32321;SDS011;61553;48.994;8.940;2023-03-01T16:35:02;27.10;;;16.05;;
32321;SDS011;61553;48.994;8.940;2023-03-01T16:37:27;26.33;;;15.98;;
32321;SDS011;61553;48.994;8.940;2023-03-01T16:39:57;31.15;;;16.48;;
32321;SDS011;61553;48.994;8.940;2023-03-01T16:42:23;29.75;;;15.90;;
32321;SDS011;61553;48.994;8.940;2023-03-01T16:44:48;26.40;;;14.82;;